Time;durP1;ratioP1;P1;durP2;ratioP2;P2;SDS_P1;SDS_P2;PMS_P1;PMS_P2;Temp;Humidity;BMP_temperature;BMP_pressure;BME280_temperature;BME280_humidity;BME280_pressure;Samples;Min_cycle;Max_cycle;Signal;HPM_P1;HPM_P2
2023/05/22 00:01:25;;;;;;;91.00;51.92;;;;;;;27.96;49.54;97888.41;5084965;28;20044;-63
2023/05/22 00:03:55;;;;;;;99.53;53.13;;;;;;;27.95;51.10;97887.59;5068319;28;20435;-62
2023/05/22 00:06:26;;;;;;;93.70;53.50;;;;;;;27.91;50.39;97897.53;5083242;28;20427;-61
2023/05/22 00:08:56;;;;;;;100.78;54.25;;;;;;;27.86;51.21;97892.25;5088977;28;20048;-61
2023/05/22 00:11:26;;;;;;;96.43;53.28;;;;;;;27.89;51.17;97897.06;5088440;28;20101;-61
2023/05/22 00:13:56;;;;;;;92.55;51.97;;;;;;;27.85;50.31;97898.81;5068466;28;20426;-61
2023/05/22 00:16:25;;;;;;;95.00;53.65;;;;;;;27.87;50.30;97898.50;5086608;28;20199;-61
2023/05/22 00:18:56;;;;;;;90.47;52.38;;;;;;;27.91;51.55;97904.91;5088241;28;20083;-61
2023/05/22 00:21:26;;;;;;;108.20;53.15;;;;;;;27.90;50.75;97904.09;5087678;28;20491;-61
2023/05/22 00:23:56;;;;;;;87.88;51.65;;;;;;;27.91;51.70;97902.19;5087459;28;20060;-61
2023/05/22 00:26:25;;;;;;;91.65;53.13;;;;;;;27.94;53.27;97915.94;5087649;28;20127;-61
2023/05/22 00:28:55;;;;;;;93.63;53.40;;;;;;;27.95;53.63;97908.56;5070574;28;20048;-62
2023/05/22 00:31:24;;;;;;;83.90;50.05;;;;;;;27.93;53.31;97918.97;5067788;28;20142;-61
2023/05/22 00:33:54;;;;;;;89.20;50.03;;;;;;;27.93;52.82;97921.69;5069801;28;20147;-61
2023/05/22 00:36:23;;;;;;;85.78;48.28;;;;;;;27.98;54.65;97921.53;5070081;28;20074;-61
2023/05/22 00:38:53;;;;;;;77.47;47.35;;;;;;;28.05;55.00;97930.00;5070774;28;20140;-60
2023/05/22 00:41:22;;;;;;;94.70;50.83;;;;;;;28.08;54.55;97942.97;5069943;28;20562;-61
2023/05/22 00:43:51;;;;;;;92.88;50.05;;;;;;;28.10;53.36;97936.09;5070498;28;20039;-61
2023/05/22 00:46:21;;;;;;;85.40;51.10;;;;;;;28.13;53.00;97938.19;5088076;28;20052;-61
2023/05/22 00:48:51;;;;;;;78.10;49.88;;;;;;;28.23;53.77;97947.13;5054386;28;20509;-63
2023/05/22 00:51:21;;;;;;;88.07;51.40;;;;;;;28.23;52.67;97945.19;5087643;28;20392;-62
2023/05/22 00:53:53;;;;;;;95.53;52.22;;;;;;;28.30;52.23;97945.50;5069982;28;20063;-61
2023/05/22 00:56:25;;;;;;;95.30;52.10;;;;;;;28.34;52.00;97946.44;5070209;28;20113;-63
2023/05/22 00:58:55;;;;;;;93.97;52.87;;;;;;;28.42;49.87;97953.75;5060925;28;20048;-61
2023/05/22 01:01:32;;;;;;;94.60;50.85;;;;;;;28.44;51.40;97948.00;5053138;28;20155;-61
2023/05/22 01:04:06;;;;;;;87.68;50.35;;;;;;;28.57;50.73;97953.22;5068891;28;20676;-61
2023/05/22 01:06:36;;;;;;;83.40;51.90;;;;;;;28.71;51.58;97958.47;5068930;28;20750;-62
2023/05/22 01:09:05;;;;;;;93.80;53.03;;;;;;;28.80;51.59;97964.69;5068546;28;20122;-62
2023/05/22 01:11:44;;;;;;;87.10;49.92;;;;;;;28.84;51.07;97970.28;5060299;28;20050;-61
2023/05/22 01:14:22;;;;;;;90.93;52.63;;;;;;;28.87;49.99;97975.88;5049251;28;20048;-61
2023/05/22 01:17:33;;;;;;;89.22;49.22;;;;;;;28.96;53.79;97989.44;5046471;28;20518;-61
2023/05/22 01:20:10;;;;;;;86.55;51.53;;;;;;;28.91;51.25;97982.25;5025698;28;20045;-63
2023/05/22 01:23:07;;;;;;;90.18;51.28;;;;;;;29.01;50.93;98000.16;5039099;28;20127;-60
2023/05/22 01:26:16;;;;;;;90.60;52.65;;;;;;;29.08;51.56;98000.44;5030039;28;20055;-61
2023/05/22 01:29:31;;;;;;;86.43;51.13;;;;;;;29.09;53.17;98007.50;4989327;28;20387;-61
2023/05/22 01:32:03;;;;;;;85.00;51.45;;;;;;;29.01;51.43;98011.06;5019289;28;20067;-61
2023/05/22 01:34:36;;;;;;;93.37;51.30;;;;;;;28.96;48.64;98022.16;5065442;28;20135;-63
2023/05/22 01:37:06;;;;;;;95.28;50.75;;;;;;;29.07;50.23;98022.59;5050713;28;20144;-62
2023/05/22 01:39:36;;;;;;;104.63;49.75;;;;;;;29.20;49.90;98019.63;5034101;28;20045;-62
2023/05/22 01:42:05;;;;;;;94.15;49.13;;;;;;;29.32;49.09;98017.00;5042967;28;20131;-62
2023/05/22 01:44:35;;;;;;;81.25;44.53;;;;;;;29.34;48.01;98017.47;5067157;28;20063;-63
2023/05/22 01:47:07;;;;;;;90.00;47.83;;;;;;;29.48;47.09;98030.06;5048845;28;20067;-63
2023/05/22 01:49:36;;;;;;;84.68;45.95;;;;;;;29.81;47.40;98028.19;5050101;28;20121;-62
2023/05/22 01:52:58;;;;;;;83.97;44.60;;;;;;;30.36;49.77;98040.72;5073715;28;20122;-63
2023/05/22 01:55:54;;;;;;;83.72;43.88;;;;;;;30.83;46.60;98043.91;5037003;28;20056;-62
2023/05/22 01:58:25;;;;;;;93.03;43.97;;;;;;;31.26;45.37;98048.81;5019937;28;20464;-61
2023/05/22 02:00:59;;;;;;;101.38;48.15;;;;;;;31.58;40.58;98053.38;5027894;28;20060;-62
2023/05/22 02:03:34;;;;;;;90.43;46.00;;;;;;;32.11;37.83;98049.47;5045493;28;20170;-64
2023/05/22 02:06:12;;;;;;;87.57;45.70;;;;;;;32.47;36.51;98045.75;5029077;28;20126;-63
2023/05/22 02:08:42;;;;;;;86.18;46.85;;;;;;;32.88;37.19;98052.69;5047246;28;20768;-61
2023/05/22 02:11:12;;;;;;;85.32;46.75;;;;;;;33.11;36.58;98055.56;5030615;28;20677;-61
2023/05/22 02:13:42;;;;;;;96.13;47.08;;;;;;;33.36;35.40;98057.81;5055327;28;20064;-61
2023/05/22 02:16:12;;;;;;;83.68;47.13;;;;;;;33.71;34.84;98057.81;5048026;28;20109;-61
2023/05/22 02:18:43;;;;;;;105.38;46.80;;;;;;;33.83;32.78;98056.88;5039016;28;20048;-62
2023/05/22 02:21:12;;;;;;;86.07;42.88;;;;;;;34.17;33.82;98055.22;5045544;28;20389;-61
2023/05/22 02:23:42;;;;;;;88.32;43.92;;;;;;;34.34;32.98;98054.00;5029310;28;20045;-62
2023/05/22 02:26:12;;;;;;;91.70;43.30;;;;;;;34.48;31.58;98048.75;5047376;28;20536;-62
2023/05/22 02:28:42;;;;;;;87.57;43.75;;;;;;;34.76;32.37;98057.53;5027258;28;20064;-61
2023/05/22 02:31:12;;;;;;;88.78;43.38;;;;;;;34.92;33.32;98060.94;5028488;28;20139;-62
2023/05/22 02:33:41;;;;;;;86.68;43.95;;;;;;;35.15;32.61;98059.00;5044942;28;20048;-61
2023/05/22 02:36:12;;;;;;;87.75;45.55;;;;;;;35.43;30.43;98064.16;5061405;28;20045;-62
2023/05/22 02:38:42;;;;;;;100.70;47.53;;;;;;;35.51;30.60;98063.06;5047741;28;20068;-62
2023/05/22 02:41:11;;;;;;;97.53;46.17;;;;;;;35.57;31.75;98060.81;5046500;28;20048;-61
2023/05/22 02:43:40;;;;;;;99.72;46.67;;;;;;;35.80;32.74;98061.53;5014097;28;20539;-61
2023/05/22 02:46:10;;;;;;;85.22;47.22;;;;;;;35.99;31.21;98064.13;5030236;28;20053;-62
2023/05/22 02:48:39;;;;;;;82.95;44.58;;;;;;;36.21;30.48;98073.47;5028156;28;20052;-62
2023/05/22 02:51:09;;;;;;;84.57;43.63;;;;;;;36.29;29.38;98063.34;5028420;28;20542;-63
2023/05/22 02:53:40;;;;;;;95.05;43.72;;;;;;;36.38;27.43;98069.34;5045490;28;20155;-60
2023/05/22 02:56:10;;;;;;;79.00;41.50;;;;;;;36.46;27.15;98066.28;5047806;28;20632;-62
2023/05/22 02:58:40;;;;;;;84.43;43.30;;;;;;;36.65;27.81;98067.25;5047779;28;20143;-62
2023/05/22 03:01:11;;;;;;;80.82;39.85;;;;;;;36.75;27.87;98074.84;5020164;28;20064;-61
2023/05/22 03:03:42;;;;;;;73.85;36.83;;;;;;;36.88;25.79;98074.19;5042093;28;20048;-62
2023/05/22 03:06:11;;;;;;;86.68;37.30;;;;;;;36.97;27.06;98073.88;5046398;28;20048;-61
2023/05/22 03:08:43;;;;;;;68.70;36.20;;;;;;;37.02;27.38;98067.19;5018714;28;20053;-62
2023/05/22 03:11:12;;;;;;;62.22;34.92;;;;;;;37.00;26.54;98064.81;5009635;28;20172;-62
2023/05/22 03:13:41;;;;;;;72.25;35.17;;;;;;;37.01;26.10;98071.94;5031333;28;20053;-61
2023/05/22 03:16:11;;;;;;;76.85;36.30;;;;;;;37.10;25.28;98072.44;5026501;28;20480;-60
2023/05/22 03:18:44;;;;;;;80.18;37.85;;;;;;;36.77;25.22;98072.53;5046344;28;20076;-61
2023/05/22 03:21:14;;;;;;;76.43;34.72;;;;;;;36.87;26.81;98066.28;5030484;28;20753;-62
2023/05/22 03:23:44;;;;;;;78.97;33.65;;;;;;;37.01;25.95;98076.66;5063804;28;20040;-62
2023/05/22 03:26:14;;;;;;;71.50;33.22;;;;;;;37.13;26.27;98074.44;5051974;28;20044;-61
2023/05/22 03:28:44;;;;;;;58.67;29.73;;;;;;;37.41;27.98;98070.28;5029649;28;20155;-60
2023/05/22 03:31:14;;;;;;;71.28;31.17;;;;;;;37.58;25.16;98072.38;5046994;28;20044;-62
2023/05/22 03:33:57;;;;;;;55.85;29.35;;;;;;;37.63;27.20;98074.78;5065819;28;20113;-62
2023/05/22 03:36:28;;;;;;;61.90;28.92;;;;;;;37.54;25.83;98066.84;5053251;28;20044;-63
2023/05/22 03:39:01;;;;;;;52.97;27.98;;;;;;;37.68;24.78;98060.59;5039097;28;20076;-62
2023/05/22 03:41:35;;;;;;;62.35;29.00;;;;;;;37.43;23.41;98057.66;5030559;28;20067;-63
2023/05/22 03:44:05;;;;;;;54.53;27.85;;;;;;;37.73;27.99;98063.00;5066998;28;20059;-62
2023/05/22 03:46:35;;;;;;;55.83;27.13;;;;;;;38.03;30.13;98055.25;5054017;28;20072;-63
2023/05/22 03:49:05;;;;;;;53.25;27.10;;;;;;;38.08;29.54;98062.38;5050972;28;20044;-63
2023/05/22 03:51:36;;;;;;;65.20;28.33;;;;;;;38.04;24.99;98056.84;5056358;28;20656;-61
2023/05/22 03:54:06;;;;;;;60.92;27.50;;;;;;;38.17;26.83;98054.50;5063763;28;20158;-62
2023/05/22 03:56:35;;;;;;;57.20;26.63;;;;;;;38.31;29.22;98054.56;5068712;28;20150;-64
2023/05/22 03:59:05;;;;;;;55.47;25.38;;;;;;;38.44;29.31;98055.00;5070975;28;20062;-62
2023/05/22 04:01:37;;;;;;;43.63;24.55;;;;;;;38.58;29.82;98046.72;5071370;28;20071;-63
2023/05/22 04:04:08;;;;;;;53.05;26.30;;;;;;;38.68;26.63;98045.16;5048333;28;20092;-63
2023/05/22 04:06:48;;;;;;;46.13;23.52;;;;;;;38.93;27.95;98048.75;5068427;28;20044;-62
2023/05/22 04:09:19;;;;;;;57.80;24.58;;;;;;;39.03;24.80;98048.78;5067975;28;20557;-62
2023/05/22 04:11:48;;;;;;;53.42;24.02;;;;;;;39.24;25.06;98052.69;5052309;28;20074;-64
2023/05/22 04:14:18;;;;;;;51.47;24.85;;;;;;;39.12;28.86;98047.56;5060021;28;20048;-63
2023/05/22 04:16:47;;;;;;;52.97;26.20;;;;;;;39.35;27.25;98045.16;5052319;28;20052;-64
2023/05/22 04:19:17;;;;;;;49.78;24.63;;;;;;;39.51;25.20;98045.56;5068244;28;20515;-65
2023/05/22 04:21:48;;;;;;;45.60;19.58;;;;;;;39.42;26.33;98048.75;5050949;28;20055;-64
2023/05/22 04:24:17;;;;;;;38.33;16.25;;;;;;;39.78;22.47;98043.13;5050664;28;20049;-64
2023/05/22 04:26:47;;;;;;;40.67;15.38;;;;;;;39.61;22.19;98041.97;5069109;28;20048;-63
2023/05/22 04:29:18;;;;;;;39.08;15.55;;;;;;;39.92;21.92;98040.28;5055699;28;20135;-64
2023/05/22 04:31:47;;;;;;;33.15;15.50;;;;;;;39.65;19.57;98031.66;5066792;28;20051;-65
2023/05/22 04:34:17;;;;;;;35.85;14.52;;;;;;;40.02;29.61;98022.78;5042111;28;20056;-65
2023/05/22 04:36:46;;;;;;;29.23;12.48;;;;;;;40.11;20.55;98031.47;5082217;28;20064;-63
2023/05/22 04:39:17;;;;;;;31.25;12.50;;;;;;;40.28;24.21;98038.13;5066904;28;20499;-65
2023/05/22 04:41:47;;;;;;;26.65;11.98;;;;;;;40.57;22.78;98033.19;5054461;28;20105;-64
2023/05/22 04:44:21;;;;;;;21.05;10.80;;;;;;;40.67;24.93;98041.50;5065418;28;20131;-66
2023/05/22 04:46:51;;;;;;;27.67;10.57;;;;;;;40.45;18.04;98042.81;5047443;28;20477;-64
2023/05/22 04:49:21;;;;;;;33.75;11.77;;;;;;;40.85;25.17;98037.78;5046143;28;20056;-64
2023/05/22 04:51:50;;;;;;;31.48;12.07;;;;;;;40.44;21.34;98043.22;5054432;28;20044;-64
2023/05/22 04:54:20;;;;;;;24.25;11.50;;;;;;;40.73;21.23;98039.84;5048941;28;20407;-65
2023/05/22 04:56:50;;;;;;;41.67;12.68;;;;;;;40.94;27.02;98047.22;5045854;28;20052;-65
2023/05/22 04:59:22;;;;;;;27.25;11.00;;;;;;;40.89;20.13;98044.09;5068443;28;20128;-65
2023/05/22 05:01:52;;;;;;;20.75;9.50;;;;;;;41.05;23.07;98036.84;5069606;28;20528;-65
2023/05/22 05:04:21;;;;;;;19.40;9.73;;;;;;;41.16;23.37;98040.28;5047016;28;20137;-67
2023/05/22 05:06:52;;;;;;;28.65;10.43;;;;;;;41.22;24.10;98047.00;5055067;28;20052;-65
2023/05/22 05:09:24;;;;;;;26.90;10.85;;;;;;;41.26;26.54;98041.41;5049406;28;20044;-65
2023/05/22 05:11:55;;;;;;;32.17;10.43;;;;;;;41.37;18.35;98041.28;5034072;28;20131;-65
2023/05/22 05:14:25;;;;;;;38.20;10.27;;;;;;;41.20;26.24;98045.84;5052649;28;20585;-66
2023/05/22 05:16:55;;;;;;;25.05;9.88;;;;;;;41.12;21.46;98035.97;5059977;28;20143;-65
2023/05/22 05:19:25;;;;;;;22.30;10.73;;;;;;;41.19;26.88;98039.50;5048387;28;20047;-67
2023/05/22 05:21:54;;;;;;;23.20;10.57;;;;;;;41.17;25.91;98035.53;5067701;28;20062;-68
2023/05/22 05:24:24;;;;;;;28.10;11.10;;;;;;;41.23;24.75;98042.22;5056988;28;20127;-67
2023/05/22 05:26:53;;;;;;;26.05;9.65;;;;;;;41.31;22.03;98035.38;5050984;28;20742;-65
2023/05/22 05:29:23;;;;;;;32.90;10.40;;;;;;;41.30;23.09;98044.94;5062185;28;20052;-68
2023/05/22 05:32:04;;;;;;;24.35;9.80;;;;;;;41.49;25.73;98041.59;5049009;28;20131;-63
2023/05/22 05:34:51;;;;;;;32.20;10.45;;;;;;;41.41;21.57;98036.50;5034483;28;20617;-66
2023/05/22 05:37:43;;;;;;;28.63;10.40;;;;;;;41.36;24.43;98046.06;5040203;28;20049;-67
2023/05/22 05:40:13;;;;;;;21.13;10.30;;;;;;;41.24;24.79;98043.81;5047762;28;20052;-67
2023/05/22 05:42:48;;;;;;;25.45;8.88;;;;;;;41.27;24.57;98042.97;5047099;28;20052;-68
2023/05/22 05:45:22;;;;;;;26.58;8.13;;;;;;;41.30;21.96;98038.56;5065497;28;20087;-67
2023/05/22 05:47:52;;;;;;;25.02;9.80;;;;;;;41.25;19.58;98034.25;5028715;28;20128;-69
2023/05/22 05:50:22;;;;;;;22.90;9.07;;;;;;;41.16;19.09;98036.75;5033384;28;20388;-70
2023/05/22 05:52:53;;;;;;;18.92;8.40;;;;;;;41.22;20.08;98037.88;5066342;28;20048;-67
2023/05/22 05:55:23;;;;;;;17.63;7.75;;;;;;;41.19;19.74;98041.47;5039296;28;20048;-66
2023/05/22 05:57:54;;;;;;;21.55;8.90;;;;;;;40.95;19.57;98034.91;5049929;28;20554;-67
2023/05/22 06:00:35;;;;;;;29.83;8.85;;;;;;;41.03;22.22;98035.69;5057279;28;20048;-68
2023/05/22 06:03:05;;;;;;;27.48;8.75;;;;;;;40.93;20.20;98042.88;5052923;28;20064;-65
2023/05/22 06:05:56;;;;;;;17.17;7.63;;;;;;;41.11;19.50;98042.75;5072237;28;20059;-65
2023/05/22 06:08:45;;;;;;;19.35;8.13;;;;;;;41.08;23.56;98036.00;5084838;28;20144;-67
2023/05/22 06:11:15;;;;;;;27.00;7.97;;;;;;;41.12;23.46;98044.31;5049941;28;20384;-66
2023/05/22 06:13:54;;;;;;;21.45;7.18;;;;;;;40.98;20.28;98027.75;5061592;28;20146;-66
2023/05/22 06:16:24;;;;;;;24.73;6.97;;;;;;;41.02;19.95;98032.09;5050742;28;20048;-67
2023/05/22 06:18:56;;;;;;;25.35;6.85;;;;;;;40.91;19.74;98031.38;5066011;28;20059;-70
2023/05/22 06:21:26;;;;;;;15.13;6.43;;;;;;;41.04;20.99;98031.69;5048726;28;20055;-71
2023/05/22 06:23:56;;;;;;;17.60;6.25;;;;;;;40.80;17.55;98031.47;5049291;28;20049;-68
2023/05/22 06:26:26;;;;;;;14.25;5.75;;;;;;;41.06;20.02;98032.88;5054743;28;20129;-69
2023/05/22 06:28:56;;;;;;;23.55;6.55;;;;;;;41.03;18.82;98024.56;5045252;28;20492;-66
2023/05/22 06:31:28;;;;;;;14.57;6.35;;;;;;;41.10;19.72;98028.06;5028686;28;20126;-66
2023/05/22 06:33:58;;;;;;;20.92;5.95;;;;;;;41.16;21.73;98022.84;5048206;28;20052;-63
2023/05/22 06:36:29;;;;;;;10.60;5.43;;;;;;;40.99;21.16;98018.19;5062627;28;20748;-65
2023/05/22 06:38:58;;;;;;;16.40;6.32;;;;;;;41.06;19.55;98012.63;5030559;28;20049;-65
2023/05/22 06:41:46;;;;;;;19.63;7.10;;;;;;;41.24;17.69;98008.47;5046112;28;20060;-65
2023/05/22 06:44:16;;;;;;;20.27;6.25;;;;;;;41.45;21.93;98015.03;5046389;28;20522;-63
2023/05/22 06:46:53;;;;;;;18.67;7.05;;;;;;;41.40;18.41;98010.66;5065122;28;20076;-63
2023/05/22 06:49:25;;;;;;;16.13;6.80;;;;;;;41.24;19.73;98004.91;5062131;28;20132;-62
2023/05/22 06:51:55;;;;;;;18.80;6.20;;;;;;;41.04;21.91;98004.69;5037451;28;20080;-61
2023/05/22 06:54:28;;;;;;;26.67;7.32;;;;;;;40.96;21.49;98002.34;5067223;28;20136;-63
2023/05/22 06:56:58;;;;;;;17.87;6.80;;;;;;;41.06;23.33;98002.28;5066505;28;20361;-62
2023/05/22 06:59:28;;;;;;;21.02;7.10;;;;;;;41.15;21.14;98002.59;5056910;28;20052;-61
2023/05/22 07:02:07;;;;;;;19.67;6.60;;;;;;;41.25;20.42;97998.13;5085634;28;20079;-63
2023/05/22 07:04:56;;;;;;;17.88;8.30;;;;;;;41.29;22.43;97996.13;5073087;28;20060;-64
2023/05/22 07:07:34;;;;;;;19.55;6.63;;;;;;;41.26;20.29;97994.94;5067433;28;20052;-65
2023/05/22 07:10:05;;;;;;;18.70;6.40;;;;;;;41.32;19.56;97998.06;5067440;28;20983;-64
2023/05/22 07:12:35;;;;;;;16.00;6.38;;;;;;;41.35;18.48;97988.88;5066902;28;20044;-64
2023/05/22 07:15:09;;;;;;;15.23;6.57;;;;;;;41.32;19.31;97988.94;5063260;28;20048;-64
2023/05/22 07:17:41;;;;;;;26.20;8.05;;;;;;;41.17;20.09;97991.06;5047769;28;20056;-62
2023/05/22 07:20:14;;;;;;;28.80;7.65;;;;;;;41.16;19.42;97984.69;5047651;28;20371;-62
2023/05/22 07:22:53;;;;;;;17.50;6.78;;;;;;;41.14;19.57;97980.78;5049357;28;20063;-64
2023/05/22 07:25:22;;;;;;;24.83;7.43;;;;;;;41.25;21.29;97981.44;5054056;28;20044;-65
2023/05/22 07:27:52;;;;;;;16.27;7.30;;;;;;;41.29;21.78;97976.66;5066759;28;20052;-64
2023/05/22 07:30:23;;;;;;;26.48;7.38;;;;;;;41.24;20.92;97977.09;5040862;28;20048;-64
2023/05/22 07:32:53;;;;;;;23.20;8.63;;;;;;;41.09;19.50;97972.88;5035187;28;20052;-64
2023/05/22 07:35:23;;;;;;;19.67;6.85;;;;;;;41.20;19.36;97979.13;5046602;28;20125;-63
2023/05/22 07:37:53;;;;;;;19.23;6.75;;;;;;;40.77;17.19;97968.38;5047134;28;20053;-63
2023/05/22 07:40:23;;;;;;;26.67;7.30;;;;;;;40.76;19.98;97977.91;5048941;28;20110;-64
2023/05/22 07:42:54;;;;;;;17.83;7.00;;;;;;;40.78;19.58;97969.97;5048959;28;20048;-65
2023/05/22 07:45:25;;;;;;;23.33;6.97;;;;;;;40.85;19.56;97968.34;5044921;28;20064;-64
2023/05/22 07:47:57;;;;;;;18.33;6.53;;;;;;;40.89;16.50;97964.31;5047053;28;20044;-63
2023/05/22 07:50:29;;;;;;;15.90;6.15;;;;;;;40.78;20.85;97964.41;5049660;28;20087;-64
2023/05/22 07:52:59;;;;;;;25.05;6.95;;;;;;;40.82;19.59;97962.38;5052330;28;20047;-62
2023/05/22 07:55:32;;;;;;;20.50;5.95;;;;;;;40.83;19.38;97966.75;5059191;28;20139;-62
2023/05/22 07:58:03;;;;;;;14.30;5.68;;;;;;;40.96;20.53;97969.00;5031956;28;20041;-66
2023/05/22 08:00:37;;;;;;;27.67;6.03;;;;;;;40.87;20.08;97961.16;5045368;28;20535;-64
2023/05/22 08:03:06;;;;;;;17.92;6.05;;;;;;;40.87;19.47;97961.16;5065811;28;20048;-63
2023/05/22 08:05:36;;;;;;;24.65;5.93;;;;;;;40.81;18.16;97958.03;5051534;28;20131;-64
2023/05/22 08:08:05;;;;;;;20.80;5.43;;;;;;;40.83;17.76;97949.28;5052996;28;20079;-63
2023/05/22 08:10:35;;;;;;;20.20;6.00;;;;;;;40.96;19.41;97949.56;5049284;28;20056;-64
2023/05/22 08:13:08;;;;;;;16.40;6.10;;;;;;;40.89;18.77;97946.88;5065744;28;20641;-63
2023/05/22 08:15:37;;;;;;;16.30;5.32;;;;;;;40.94;18.42;97947.19;5072164;28;20109;-64
2023/05/22 08:18:06;;;;;;;21.42;5.75;;;;;;;40.93;19.27;97948.41;5076147;28;20110;-63
2023/05/22 08:20:37;;;;;;;16.98;5.47;;;;;;;40.89;19.48;97942.09;5046780;28;20052;-64
2023/05/22 08:23:07;;;;;;;16.65;5.60;;;;;;;40.87;19.37;97943.69;5057633;28;20468;-64
2023/05/22 08:25:36;;;;;;;14.82;5.05;;;;;;;40.81;18.21;97941.38;5068640;28;20056;-65
2023/05/22 08:28:05;;;;;;;24.98;5.50;;;;;;;40.71;18.39;97933.16;5056300;28;20075;-64
2023/05/22 08:30:36;;;;;;;15.68;5.45;;;;;;;40.64;16.67;97938.75;5071710;28;20145;-64
2023/05/22 08:33:05;;;;;;;15.55;5.18;;;;;;;40.61;19.28;97931.25;5072205;28;20075;-64
2023/05/22 08:35:35;;;;;;;21.63;5.65;;;;;;;40.54;18.45;97934.06;5063346;28;20044;-63
2023/05/22 08:38:04;;;;;;;19.50;5.20;;;;;;;40.62;19.94;97936.41;5084920;28;20075;-64
2023/05/22 08:40:39;;;;;;;17.23;5.80;;;;;;;40.64;20.57;97934.00;5064796;28;20392;-65
2023/05/22 08:43:12;;;;;;;13.38;4.60;;;;;;;40.58;18.45;97916.19;5057028;28;20044;-66
2023/05/22 08:45:42;;;;;;;23.00;5.72;;;;;;;40.53;16.65;97926.94;5072003;28;20959;-65
2023/05/22 08:48:13;;;;;;;23.80;4.95;;;;;;;40.52;17.63;97920.59;5067552;28;20059;-65
2023/05/22 08:50:46;;;;;;;18.92;5.03;;;;;;;40.46;16.64;97922.22;5048533;28;20106;-62
2023/05/22 08:53:16;;;;;;;;;;;;;;;40.44;17.41;97921.84;5083993;28;20742;-63
2023/05/22 08:55:46;;;;;;;14.40;4.80;;;;;;;40.35;17.35;97925.09;5071811;28;19924;-65
2023/05/22 08:58:17;;;;;;;23.98;4.82;;;;;;;40.29;18.92;97925.91;5067647;28;20605;-64
2023/05/22 09:00:47;;;;;;;13.52;4.47;;;;;;;40.15;17.34;97920.44;5058914;28;20637;-68
2023/05/22 09:03:20;;;;;;;10.95;4.63;;;;;;;39.93;16.69;97920.59;5056537;28;20380;-66
2023/05/22 09:05:55;;;;;;;15.23;4.88;;;;;;;39.72;18.21;97915.16;5021759;28;20416;-62
2023/05/22 09:08:52;;;;;;;16.30;4.80;;;;;;;39.78;19.00;97913.56;5052737;28;20147;-63
2023/05/22 09:11:21;;;;;;;11.40;3.97;;;;;;;39.76;19.81;97918.72;5084282;28;20151;-66
2023/05/22 09:13:51;;;;;;;12.15;4.55;;;;;;;39.75;19.77;97913.56;5051599;28;20048;-66
2023/05/22 09:16:21;;;;;;;14.30;4.75;;;;;;;39.89;18.26;97910.72;5068143;28;20549;-64
2023/05/22 09:18:50;;;;;;;16.27;4.35;;;;;;;39.90;18.51;97899.22;5057746;28;20579;-66
2023/05/22 09:21:20;;;;;;;15.07;4.35;;;;;;;40.02;17.88;97888.81;5065893;28;20056;-69
2023/05/22 09:24:00;;;;;;;13.52;5.38;;;;;;;40.13;19.52;97900.66;5079489;28;20040;-67
2023/05/22 09:26:29;;;;;;;18.52;4.47;;;;;;;40.07;19.37;97899.50;5066720;28;20478;-69
2023/05/22 09:28:59;;;;;;;12.55;4.13;;;;;;;40.06;19.68;97901.47;5049140;28;20392;-66
2023/05/22 09:31:30;;;;;;;15.40;4.22;;;;;;;40.05;21.27;97896.34;5033931;28;20051;-65
2023/05/22 09:34:00;;;;;;;21.95;4.72;;;;;;;40.00;20.06;97892.03;5032235;28;20040;-65
2023/05/22 09:36:32;;;;;;;13.82;4.18;;;;;;;40.14;21.81;97891.94;5076539;28;20472;-65
2023/05/22 09:39:03;;;;;;;13.27;4.77;;;;;;;40.07;18.90;97889.19;5049331;28;20333;-65
2023/05/22 09:41:39;;;;;;;16.85;4.90;;;;;;;40.10;20.03;97887.59;5034792;28;20064;-66
2023/05/22 09:44:13;;;;;;;12.40;4.00;;;;;;;40.09;18.88;97889.59;5060079;28;20044;-68
2023/05/22 09:46:46;;;;;;;11.80;4.55;;;;;;;40.02;18.20;97900.72;5061430;28;20044;-67
2023/05/22 09:49:16;;;;;;;22.98;5.18;;;;;;;39.95;18.21;97887.69;5065026;28;20458;-67
2023/05/22 09:51:48;;;;;;;11.98;4.22;;;;;;;39.83;18.97;97881.84;5066535;28;20059;-67
2023/05/22 09:54:20;;;;;;;12.20;4.53;;;;;;;39.69;18.69;97882.69;5066162;28;20041;-66
2023/05/22 09:56:55;;;;;;;13.95;4.03;;;;;;;39.49;19.60;97879.63;5063439;28;20095;-67
2023/05/22 09:59:31;;;;;;;15.75;4.18;;;;;;;39.40;20.62;97878.47;5066037;28;20713;-63
2023/05/22 10:02:02;;;;;;;14.38;4.72;;;;;;;39.41;19.66;97868.97;5048860;28;20063;-65
2023/05/22 10:04:33;;;;;;;23.17;4.78;;;;;;;39.42;20.92;97873.31;5048967;28;20130;-66
2023/05/22 10:07:04;;;;;;;21.20;4.75;;;;;;;39.39;22.08;97874.13;5048177;28;20539;-69
2023/05/22 10:09:39;;;;;;;14.15;4.85;;;;;;;39.33;20.37;97876.53;5048635;28;20577;-68
2023/05/22 10:12:15;;;;;;;17.73;4.05;;;;;;;39.21;21.95;97868.66;5065948;28;20052;-64
2023/05/22 10:14:45;;;;;;;18.88;4.88;;;;;;;39.15;21.19;97863.91;5048774;28;20058;-67
2023/05/22 10:17:16;;;;;;;13.75;3.63;;;;;;;39.08;21.39;97867.50;5064844;28;20060;-66
2023/05/22 10:19:46;;;;;;;15.65;4.47;;;;;;;39.09;19.91;97861.53;5065614;28;20044;-69
2023/05/22 10:22:19;;;;;;;14.73;3.60;;;;;;;39.01;22.80;97860.00;5045626;28;20075;-62
2023/05/22 10:24:51;;;;;;;15.05;4.10;;;;;;;39.03;21.48;97863.16;5047985;28;20048;-62
2023/05/22 10:27:21;;;;;;;19.65;4.22;;;;;;;38.94;22.77;97862.81;5064369;28;20115;-62
2023/05/22 10:30:05;;;;;;;22.55;4.55;;;;;;;38.87;23.52;97860.03;5063903;28;20492;-63
2023/05/22 10:33:19;;;;;;;18.55;4.53;;;;;;;38.93;22.18;97852.13;5046727;28;20362;-64
2023/05/22 10:36:06;;;;;;;11.13;4.50;;;;;;;38.81;25.23;97850.53;5045221;28;20387;-63
2023/05/22 10:38:54;;;;;;;18.65;5.30;;;;;;;38.72;26.84;97852.16;5044516;28;20541;-62
2023/05/22 10:41:25;;;;;;;28.00;5.75;;;;;;;38.72;26.63;97843.84;5064240;28;20059;-63
2023/05/22 10:43:57;;;;;;;20.27;4.38;;;;;;;38.70;28.34;97848.97;5064610;28;20528;-61
2023/05/22 10:46:34;;;;;;;22.65;5.13;;;;;;;38.75;28.41;97846.59;5044433;28;20059;-63
2023/05/22 10:49:04;;;;;;;24.15;6.10;;;;;;;38.77;29.75;97849.75;5064141;28;20453;-62
2023/05/22 10:51:34;;;;;;;19.63;5.25;;;;;;;38.67;30.30;97845.03;5047406;28;20574;-62
2023/05/22 10:54:04;;;;;;;25.27;5.30;;;;;;;38.61;30.36;97849.38;5040633;28;20738;-63
2023/05/22 10:56:34;;;;;;;24.20;5.47;;;;;;;38.57;30.21;97841.09;5056267;28;20462;-63
2023/05/22 10:59:06;;;;;;;27.20;5.28;;;;;;;38.56;29.58;97844.25;5058054;28;20117;-62
2023/05/22 11:01:39;;;;;;;35.63;5.30;;;;;;;38.51;29.56;97845.44;5048661;28;20051;-61
2023/05/22 11:04:17;;;;;;;21.45;6.35;;;;;;;38.47;29.61;97846.63;5047233;28;20475;-62
2023/05/22 11:07:14;;;;;;;20.45;5.03;;;;;;;38.48;29.73;97839.91;5047420;28;20154;-61
2023/05/22 11:09:46;;;;;;;30.70;5.70;;;;;;;38.41;30.10;97837.94;5065210;28;20055;-62
2023/05/22 11:12:23;;;;;;;25.33;5.07;;;;;;;38.35;30.74;97842.28;5065112;28;20045;-62
2023/05/22 11:14:57;;;;;;;24.63;5.80;;;;;;;38.34;30.68;97835.16;5056834;28;20060;-62
2023/05/22 11:17:30;;;;;;;25.20;5.50;;;;;;;38.21;31.32;97829.25;5064332;28;20053;-62
2023/05/22 11:20:06;;;;;;;16.20;4.95;;;;;;;38.17;31.28;97834.00;5066003;28;20075;-62
2023/05/22 11:22:36;;;;;;;21.38;5.30;;;;;;;38.15;30.97;97835.59;5081160;28;20055;-62
2023/05/22 11:25:15;;;;;;;20.13;5.43;;;;;;;38.10;31.79;97827.69;5053637;28;20049;-61
2023/05/22 11:27:47;;;;;;;18.90;5.65;;;;;;;38.06;32.00;97826.91;5046040;28;20052;-62
2023/05/22 11:30:16;;;;;;;23.60;4.97;;;;;;;38.04;32.88;97829.25;5047294;28;20056;-61
2023/05/22 11:32:46;;;;;;;26.15;5.05;;;;;;;37.93;33.41;97818.16;5064980;28;20052;-62
2023/05/22 11:35:18;;;;;;;22.05;5.75;;;;;;;38.03;32.60;97822.94;5065651;28;20114;-62
2023/05/22 11:37:49;;;;;;;18.38;4.72;;;;;;;37.97;32.38;97823.69;5047638;28;20048;-64
2023/05/22 11:40:21;;;;;;;16.55;4.88;;;;;;;37.96;31.94;97816.59;5074431;28;20086;-62
2023/05/22 11:42:51;;;;;;;14.70;5.07;;;;;;;37.90;32.96;97818.16;5075978;28;20064;-62
2023/05/22 11:45:21;;;;;;;21.55;4.80;;;;;;;37.87;32.39;97808.69;5059160;28;20040;-62
2023/05/22 11:47:51;;;;;;;19.45;5.63;;;;;;;37.86;32.54;97823.69;5047712;28;20045;-62